Time;durP1;ratioP1;P1;durP2;ratioP2;P2;SDS_P1;SDS_P2;PMS_P1;PMS_P2;Temp;Humidity;BMP_temperature;BMP_pressure;BME280_temperature;BME280_humidity;BME280_pressure;Samples;Min_cycle;Max_cycle;Signal;HPM_P1;HPM_P2
2021/03/05 00:02:26;;;;;;;2.17;2.00;;;11.60;99.90;;;;;;5095156;28;20445;-80
2021/03/05 00:04:53;;;;;;;3.53;2.40;;;11.60;99.90;;;;;;5089538;28;20486;-79
2021/03/05 00:07:20;;;;;;;3.30;2.27;;;11.50;99.90;;;;;;5083910;28;20480;-78
2021/03/05 00:09:48;;;;;;;3.00;2.00;;;11.60;99.90;;;;;;5063898;28;20462;-78
2021/03/05 00:12:15;;;;;;;3.07;2.77;;;11.60;99.90;;;;;;5089134;28;20456;-78
2021/03/05 00:14:43;;;;;;;2.33;2.13;;;11.60;99.90;;;;;;5090770;28;21272;-81
2021/03/05 00:17:11;;;;;;;2.93;2.73;;;11.60;99.90;;;;;;5097955;28;20453;-77
2021/03/05 00:19:39;;;;;;;3.00;2.40;;;11.70;99.90;;;;;;5092416;28;20450;-78
2021/03/05 00:22:06;;;;;;;3.00;2.80;;;11.50;99.90;;;;;;5079561;28;20449;-77
2021/03/05 00:24:34;;;;;;;2.23;2.03;;;11.60;99.90;;;;;;5106022;28;20945;-79
2021/03/05 00:27:01;;;;;;;3.83;2.40;;;11.60;99.90;;;;;;5090714;28;20523;-78
2021/03/05 00:29:28;;;;;;;2.83;2.50;;;11.50;99.90;;;;;;5090321;28;20456;-79
2021/03/05 00:31:56;;;;;;;4.90;4.00;;;11.50;99.90;;;;;;5092011;28;21052;-81
2021/03/05 00:34:24;;;;;;;4.30;2.87;;;11.60;99.90;;;;;;5072436;28;20534;-79
2021/03/05 00:36:51;;;;;;;6.90;4.97;;;11.50;99.90;;;;;;5096522;28;20461;-76
2021/03/05 00:39:18;;;;;;;8.70;7.27;;;11.40;99.90;;;;;;5109794;28;20444;-79
2021/03/05 00:41:45;;;;;;;8.43;7.43;;;11.20;99.90;;;;;;5104013;28;20796;-77
2021/03/05 00:44:12;;;;;;;12.37;9.70;;;11.10;99.90;;;;;;5094005;28;20475;-77
2021/03/05 00:46:39;;;;;;;9.80;8.90;;;11.00;99.90;;;;;;5095266;28;20457;-77
2021/03/05 00:49:07;;;;;;;9.90;7.97;;;11.00;99.90;;;;;;5091533;28;20461;-78
2021/03/05 00:51:35;;;;;;;9.33;8.30;;;10.90;99.90;;;;;;5094313;28;20485;-78
2021/03/05 00:54:02;;;;;;;9.77;8.67;;;10.90;99.90;;;;;;5096561;27;20463;-78
2021/03/05 00:56:30;;;;;;;7.50;6.53;;;10.80;99.90;;;;;;5097479;28;20464;-77
2021/03/05 00:58:57;;;;;;;8.93;7.73;;;10.90;99.90;;;;;;5094570;28;21647;-79
2021/03/05 01:01:24;;;;;;;9.90;7.77;;;10.70;99.90;;;;;;5092593;28;20547;-77
2021/03/05 01:03:51;;;;;;;9.60;7.17;;;10.60;99.90;;;;;;5103689;28;20458;-75
2021/03/05 01:06:18;;;;;;;8.67;6.90;;;10.60;99.90;;;;;;5091566;28;20531;-77
2021/03/05 01:08:46;;;;;;;9.00;7.90;;;10.60;99.90;;;;;;5093875;28;20460;-76
2021/03/05 01:11:13;;;;;;;8.07;7.27;;;10.50;99.90;;;;;;5095660;28;20456;-76
2021/03/05 01:13:41;;;;;;;9.73;7.30;;;10.50;99.90;;;;;;5095823;28;20440;-77
2021/03/05 01:16:09;;;;;;;9.90;7.53;;;10.40;99.90;;;;;;5101740;28;20470;-76
2021/03/05 01:18:36;;;;;;;10.23;7.63;;;10.40;99.90;;;;;;5087341;28;20467;-75
2021/03/05 01:21:05;;;;;;;10.60;8.00;;;10.30;99.90;;;;;;5103910;28;20490;-76
2021/03/05 01:23:32;;;;;;;11.27;8.60;;;10.30;99.90;;;;;;5097368;28;20979;-78
2021/03/05 01:26:00;;;;;;;9.97;8.00;;;10.30;99.90;;;;;;5101215;28;20554;-75
2021/03/05 01:28:27;;;;;;;8.33;7.03;;;10.10;99.90;;;;;;5093490;28;20471;-76
2021/03/05 01:30:55;;;;;;;9.37;7.53;;;10.10;99.90;;;;;;5086031;28;20549;-76
2021/03/05 01:33:22;;;;;;;13.83;8.93;;;10.10;99.90;;;;;;5089047;28;20451;-76
2021/03/05 01:35:51;;;;;;;11.90;8.97;;;10.20;99.90;;;;;;5092497;27;20479;-75
2021/03/05 01:38:18;;;;;;;9.43;8.40;;;10.10;99.90;;;;;;5102725;27;20479;-80
2021/03/05 01:40:46;;;;;;;10.43;7.47;;;10.00;99.90;;;;;;5082743;28;20475;-78
2021/03/05 01:43:16;;;;;;;13.03;8.50;;;10.00;99.90;;;;;;5064824;28;20460;-78
2021/03/05 01:45:44;;;;;;;10.50;7.97;;;10.00;99.90;;;;;;5092076;28;20487;-76
2021/03/05 01:48:14;;;;;;;12.10;8.00;;;9.90;99.90;;;;;;5109433;28;20462;-78
2021/03/05 01:50:52;;;;;;;10.23;7.40;;;10.00;99.90;;;;;;5086380;28;20463;-76
2021/03/05 01:53:21;;;;;;;10.40;7.80;;;9.90;99.90;;;;;;5087583;28;20470;-78
2021/03/05 01:55:48;;;;;;;11.50;8.10;;;9.90;99.90;;;;;;5088553;28;20454;-77
2021/03/05 01:58:17;;;;;;;9.60;7.43;;;9.90;99.90;;;;;;5090971;28;20475;-75
2021/03/05 02:00:47;;;;;;;10.93;7.50;;;9.70;99.90;;;;;;5113113;27;21103;-78
2021/03/05 02:03:14;;;;;;;9.53;6.60;;;9.80;99.90;;;;;;5090123;28;20516;-78
2021/03/05 02:05:42;;;;;;;8.77;7.27;;;9.90;99.90;;;;;;5090506;28;20473;-76
2021/03/05 02:08:10;;;;;;;8.77;6.37;;;9.80;99.90;;;;;;5095286;28;20472;-78
2021/03/05 02:10:37;;;;;;;9.73;7.27;;;9.80;99.90;;;;;;5088388;28;20444;-76
2021/03/05 02:13:05;;;;;;;11.90;8.17;;;9.80;99.90;;;;;;5092543;28;20505;-78
2021/03/05 02:15:35;;;;;;;11.83;8.67;;;9.60;99.90;;;;;;5090943;28;20558;-76
2021/03/05 02:18:10;;;;;;;11.13;8.73;;;9.50;99.90;;;;;;5071435;28;20475;-75
2021/03/05 02:20:48;;;;;;;14.90;10.27;;;9.50;99.90;;;;;;5094439;28;20459;-76
2021/03/05 02:23:39;;;;;;;17.67;10.53;;;9.40;99.90;;;;;;5086263;28;20468;-76
2021/03/05 02:26:53;;;;;;;12.73;9.93;;;9.40;99.90;;;;;;5091706;28;20995;-74
2021/03/05 02:29:59;;;;;;;14.73;10.20;;;9.30;99.90;;;;;;5079526;28;20455;-76
2021/03/05 02:32:33;;;;;;;17.90;12.13;;;9.30;99.90;;;;;;5094072;28;20457;-74
2021/03/05 02:35:02;;;;;;;13.83;9.90;;;9.40;99.90;;;;;;5095668;28;20921;-76
2021/03/05 02:37:35;;;;;;;16.20;10.27;;;9.30;99.90;;;;;;5096718;28;20483;-75
2021/03/05 02:40:05;;;;;;;14.80;10.07;;;9.20;99.90;;;;;;5096423;28;20605;-75
2021/03/05 02:42:41;;;;;;;12.87;9.87;;;9.30;99.90;;;;;;5100662;28;20463;-76
2021/03/05 02:45:12;;;;;;;13.70;9.70;;;9.30;99.90;;;;;;5107650;28;20577;-78
2021/03/05 02:47:43;;;;;;;15.67;10.03;;;9.30;99.90;;;;;;5093880;28;20478;-77
2021/03/05 02:50:13;;;;;;;14.67;10.07;;;9.30;99.90;;;;;;5092556;28;20458;-79
2021/03/05 02:52:43;;;;;;;15.87;8.87;;;9.30;99.90;;;;;;5092580;28;20458;-78
2021/03/05 02:55:12;;;;;;;16.03;11.40;;;9.20;99.90;;;;;;5079677;28;20463;-78
2021/03/05 02:57:44;;;;;;;13.60;8.70;;;9.10;99.90;;;;;;5087849;28;21238;-75
2021/03/05 03:00:13;;;;;;;11.67;9.00;;;9.10;99.90;;;;;;5075626;28;20548;-78
2021/03/05 03:02:41;;;;;;;13.33;9.83;;;9.00;99.90;;;;;;5093779;28;20462;-76
2021/03/05 03:05:12;;;;;;;16.03;9.60;;;9.10;99.90;;;;;;5099710;28;20491;-76
2021/03/05 03:07:48;;;;;;;11.97;8.80;;;9.00;99.90;;;;;;5099343;28;20478;-75
2021/03/05 03:10:19;;;;;;;16.67;10.17;;;8.90;99.90;;;;;;5099916;28;20462;-78
2021/03/05 03:12:47;;;;;;;13.00;9.97;;;9.00;99.90;;;;;;5081205;28;21468;-75
2021/03/05 03:15:15;;;;;;;16.30;11.20;;;9.00;99.90;;;;;;5095976;28;20496;-77
2021/03/05 03:17:45;;;;;;;13.77;10.10;;;9.00;99.90;;;;;;5097395;28;20459;-78
2021/03/05 03:20:17;;;;;;;14.20;9.50;;;8.90;99.90;;;;;;5093186;28;20451;-75
2021/03/05 03:22:45;;;;;;;15.27;9.47;;;8.90;99.90;;;;;;5090489;28;22474;-78
2021/03/05 03:25:14;;;;;;;16.00;11.23;;;9.10;99.90;;;;;;5091384;28;20490;-77
2021/03/05 03:27:42;;;;;;;14.83;9.47;;;8.90;99.90;;;;;;5096990;28;20486;-76
2021/03/05 03:30:10;;;;;;;11.63;8.13;;;9.20;99.90;;;;;;5095841;28;20448;-75
2021/03/05 03:32:38;;;;;;;9.07;7.37;;;9.00;99.90;;;;;;5096826;28;20485;-76
2021/03/05 03:35:09;;;;;;;14.23;8.57;;;9.00;99.90;;;;;;5115996;27;20487;-75
2021/03/05 03:37:37;;;;;;;11.03;8.63;;;8.90;99.90;;;;;;5093923;28;20644;-77
2021/03/05 03:40:05;;;;;;;10.10;8.17;;;8.90;99.90;;;;;;5095838;28;20878;-76
2021/03/05 03:42:32;;;;;;;13.70;9.00;;;8.90;99.90;;;;;;5099859;28;21897;-76
2021/03/05 03:45:00;;;;;;;12.00;8.93;;;8.80;99.90;;;;;;5096134;28;20480;-75
2021/03/05 03:47:28;;;;;;;11.73;9.23;;;8.80;99.90;;;;;;5079091;28;20479;-77
2021/03/05 03:49:58;;;;;;;11.07;8.33;;;9.00;99.90;;;;;;5079094;28;20464;-77
2021/03/05 03:52:28;;;;;;;13.47;9.33;;;9.00;99.90;;;;;;5085043;28;20462;-78
2021/03/05 03:54:58;;;;;;;9.90;8.10;;;8.90;99.90;;;;;;5100753;28;20538;-79
2021/03/05 03:57:27;;;;;;;11.17;8.47;;;8.90;99.90;;;;;;5089044;28;20483;-80
2021/03/05 03:59:58;;;;;;;11.33;9.13;;;8.80;99.90;;;;;;5071388;28;20498;-74
2021/03/05 04:02:27;;;;;;;12.87;8.83;;;8.80;99.90;;;;;;5088871;28;20473;-74
2021/03/05 04:04:55;;;;;;;11.50;8.83;;;8.60;99.90;;;;;;5089398;28;20563;-76
2021/03/05 04:07:27;;;;;;;10.73;7.87;;;8.60;99.90;;;;;;5093257;28;20483;-77
2021/03/05 04:09:55;;;;;;;12.13;9.30;;;8.70;99.90;;;;;;5087423;28;20463;-78
2021/03/05 04:12:26;;;;;;;10.60;8.07;;;8.60;99.90;;;;;;5090384;28;20459;-75
2021/03/05 04:14:54;;;;;;;8.43;7.53;;;8.60;99.90;;;;;;5101038;28;20520;-75
2021/03/05 04:17:22;;;;;;;8.43;6.83;;;8.60;99.90;;;;;;5090777;28;21008;-78
2021/03/05 04:19:53;;;;;;;8.03;6.17;;;8.60;99.90;;;;;;5088278;28;20484;-76
2021/03/05 04:22:21;;;;;;;10.30;7.57;;;8.70;99.90;;;;;;5087100;28;20448;-76
2021/03/05 04:24:49;;;;;;;9.33;8.13;;;8.70;99.90;;;;;;5086074;28;20460;-76
2021/03/05 04:27:16;;;;;;;8.77;6.53;;;8.70;99.90;;;;;;5102926;28;21078;-75
2021/03/05 04:29:43;;;;;;;7.70;6.90;;;8.70;99.90;;;;;;5102901;28;20444;-77
2021/03/05 04:32:11;;;;;;;9.40;7.70;;;8.70;99.90;;;;;;5079517;28;20470;-77
2021/03/05 04:34:38;;;;;;;9.67;7.13;;;8.70;99.90;;;;;;5081858;28;20448;-79
2021/03/05 04:37:05;;;;;;;7.70;6.90;;;8.60;99.90;;;;;;5094088;28;20483;-77
2021/03/05 04:39:32;;;;;;;8.90;6.60;;;8.60;99.90;;;;;;5090028;28;20453;-77
2021/03/05 04:42:00;;;;;;;9.37;7.00;;;8.60;99.90;;;;;;5110321;28;20451;-76
2021/03/05 04:44:27;;;;;;;7.90;7.00;;;8.70;99.90;;;;;;5103133;28;20463;-78
2021/03/05 04:46:55;;;;;;;7.77;5.77;;;8.70;99.90;;;;;;5099099;28;20519;-77
2021/03/05 04:49:23;;;;;;;5.90;5.33;;;8.60;99.90;;;;;;5099542;28;20450;-76
2021/03/05 04:51:51;;;;;;;7.17;6.47;;;8.60;99.90;;;;;;5096208;28;20810;-76
2021/03/05 04:54:18;;;;;;;6.27;5.33;;;8.50;99.90;;;;;;5076049;28;20547;-79
2021/03/05 04:56:45;;;;;;;7.30;5.83;;;8.50;99.90;;;;;;5096339;28;20474;-76
2021/03/05 04:59:13;;;;;;;7.10;5.93;;;8.40;99.90;;;;;;5079443;28;20466;-76
2021/03/05 05:01:40;;;;;;;7.32;5.90;;;8.40;99.90;;;;;;5099653;28;20930;-76
2021/03/05 05:04:07;;;;;;;7.10;5.40;;;8.40;99.90;;;;;;5097266;28;20208;-78
2021/03/05 05:06:34;;;;;;;6.90;5.90;;;8.50;99.90;;;;;;5096659;28;20493;-78
2021/03/05 05:09:17;;;;;;;6.00;5.30;;;8.40;99.90;;;;;;5100027;28;22894;-76
2021/03/05 05:11:44;;;;;;;9.00;6.73;;;8.40;99.90;;;;;;5119627;27;21534;-80
2021/03/05 05:14:11;;;;;;;6.50;5.87;;;8.40;99.90;;;;;;5100624;28;20517;-77
2021/03/05 05:16:39;;;;;;;9.13;6.83;;;8.40;99.90;;;;;;5115016;27;22077;-81
2021/03/05 05:19:06;;;;;;;12.23;5.73;;;8.40;99.90;;;;;;5110179;28;20460;-78
2021/03/05 05:21:34;;;;;;;10.13;6.73;;;8.60;99.90;;;;;;5101667;28;20456;-79
2021/03/05 05:24:01;;;;;;;9.93;6.33;;;8.30;99.90;;;;;;5099595;28;20465;-78
2021/03/05 05:26:28;;;;;;;6.43;5.37;;;8.40;99.90;;;;;;5101322;28;20493;-79
2021/03/05 05:28:55;;;;;;;7.77;6.10;;;8.40;99.90;;;;;;5099924;28;20554;-80
2021/03/05 05:31:23;;;;;;;6.87;6.00;;;8.40;99.90;;;;;;5100230;28;20458;-79
2021/03/05 05:33:52;;;;;;;6.87;5.37;;;8.40;99.90;;;;;;5095582;28;20440;-79
2021/03/05 05:36:19;;;;;;;6.47;5.77;;;8.60;99.90;;;;;;5096440;28;20524;-78
2021/03/05 05:38:47;;;;;;;6.00;5.27;;;8.40;99.90;;;;;;5109749;28;20442;-79
2021/03/05 05:41:15;;;;;;;7.90;5.53;;;8.40;99.90;;;;;;5074957;28;20464;-79
2021/03/05 05:43:42;;;;;;;8.10;7.37;;;8.40;99.90;;;;;;5096083;28;20455;-79
2021/03/05 05:46:10;;;;;;;9.83;6.70;;;8.40;99.90;;;;;;5098466;28;21101;-78
2021/03/05 05:48:46;;;;;;;7.30;5.53;;;8.40;99.90;;;;;;5097941;28;20450;-77
2021/03/05 05:51:17;;;;;;;7.73;5.40;;;8.60;99.90;;;;;;5100218;28;20442;-81
2021/03/05 05:53:46;;;;;;;7.23;5.33;;;8.60;99.90;;;;;;5096509;28;20450;-77
2021/03/05 05:56:15;;;;;;;8.20;6.93;;;8.40;99.90;;;;;;5103217;28;20451;-77
2021/03/05 05:58:43;;;;;;;9.67;6.13;;;8.40;99.90;;;;;;5098782;28;20441;-80
2021/03/05 06:01:11;;;;;;;6.83;5.70;;;8.40;99.90;;;;;;5095582;28;20526;-78
2021/03/05 06:03:40;;;;;;;8.33;6.53;;;8.40;99.90;;;;;;5082705;28;22165;-74
2021/03/05 06:06:07;;;;;;;6.37;5.67;;;8.30;99.90;;;;;;5089023;28;20501;-77
2021/03/05 06:08:58;;;;;;;8.83;5.93;;;8.40;99.90;;;;;;5094245;28;21036;-76
2021/03/05 06:11:34;;;;;;;8.57;6.27;;;8.30;99.90;;;;;;5104418;28;20515;-77
2021/03/05 06:14:03;;;;;;;9.00;6.37;;;8.30;99.90;;;;;;5095638;28;20457;-78
2021/03/05 06:16:30;;;;;;;7.30;5.90;;;8.30;99.90;;;;;;5093243;28;20516;-78
2021/03/05 06:18:59;;;;;;;8.97;5.53;;;8.40;99.90;;;;;;5099069;28;20952;-78
2021/03/05 06:21:36;;;;;;;10.17;7.80;;;8.20;99.90;;;;;;5097662;28;20449;-77
2021/03/05 06:24:06;;;;;;;8.30;5.50;;;8.40;99.90;;;;;;5098482;28;20538;-78
2021/03/05 06:26:47;;;;;;;10.03;6.40;;;8.30;99.90;;;;;;5095884;27;20481;-80
2021/03/05 06:29:15;;;;;;;11.13;6.70;;;8.20;99.90;;;;;;5081561;28;20483;-77
2021/03/05 06:31:51;;;;;;;10.80;7.10;;;8.10;99.90;;;;;;5093917;28;20453;-77
2021/03/05 06:34:18;;;;;;;8.80;6.53;;;8.10;99.90;;;;;;5082130;28;20455;-78
2021/03/05 06:36:57;;;;;;;9.73;7.40;;;8.10;99.90;;;;;;5074948;28;20561;-77
2021/03/05 06:39:29;;;;;;;7.20;5.63;;;8.00;99.90;;;;;;5091336;28;20455;-78
2021/03/05 06:42:05;;;;;;;8.60;6.13;;;8.00;99.90;;;;;;5090185;28;20868;-78
2021/03/05 06:44:35;;;;;;;6.50;5.10;;;8.00;99.90;;;;;;5085788;27;20562;-75
2021/03/05 06:47:13;;;;;;;6.80;6.00;;;8.10;99.90;;;;;;5087868;28;20478;-75
2021/03/05 06:49:43;;;;;;;6.47;4.63;;;8.10;99.90;;;;;;5067215;28;20511;-77
2021/03/05 06:52:12;;;;;;;9.63;6.37;;;8.10;99.90;;;;;;5092866;27;20449;-76
2021/03/05 06:54:40;;;;;;;7.10;5.70;;;8.10;99.90;;;;;;5075360;28;20555;-77
2021/03/05 06:57:09;;;;;;;10.17;6.73;;;8.10;99.90;;;;;;5098312;28;20547;-77
2021/03/05 06:59:39;;;;;;;8.40;5.93;;;8.20;99.90;;;;;;5097339;28;20862;-77
2021/03/05 07:02:08;;;;;;;10.83;6.20;;;8.30;99.90;;;;;;5095458;28;20980;-77
2021/03/05 07:04:44;;;;;;;7.17;6.07;;;8.10;99.90;;;;;;5090727;28;20452;-77
2021/03/05 07:07:12;;;;;;;8.00;5.67;;;8.10;99.90;;;;;;5093639;28;20494;-75
2021/03/05 07:09:42;;;;;;;8.10;5.90;;;8.10;99.90;;;;;;5096629;28;20441;-76
2021/03/05 07:12:11;;;;;;;8.73;5.63;;;8.20;99.90;;;;;;5078617;28;20836;-76
2021/03/05 07:14:40;;;;;;;16.67;9.37;;;8.20;99.90;;;;;;5077522;28;20463;-76
2021/03/05 07:17:07;;;;;;;20.40;10.53;;;8.10;99.90;;;;;;5093626;28;20470;-76
2021/03/05 07:19:36;;;;;;;14.40;7.90;;;8.20;99.90;;;;;;5096433;28;20453;-76
2021/03/05 07:22:05;;;;;;;10.63;6.53;;;8.00;99.90;;;;;;5099509;28;20482;-76
2021/03/05 07:24:33;;;;;;;11.43;6.73;;;8.00;99.90;;;;;;5094286;28;20460;-76
2021/03/05 07:27:03;;;;;;;7.50;5.67;;;8.10;99.90;;;;;;5099739;28;20482;-75
2021/03/05 07:29:34;;;;;;;9.17;6.53;;;8.30;99.90;;;;;;5096205;28;20460;-75
2021/03/05 07:32:07;;;;;;;10.07;6.90;;;8.10;99.90;;;;;;5105036;28;20482;-76
2021/03/05 07:34:44;;;;;;;10.07;8.40;;;8.10;99.90;;;;;;5067953;28;20466;-75
2021/03/05 07:37:13;;;;;;;9.20;7.13;;;8.30;99.90;;;;;;5091657;28;20593;-75
2021/03/05 07:39:44;;;;;;;8.10;5.93;;;8.10;99.90;;;;;;5068839;28;20460;-74
2021/03/05 07:42:14;;;;;;;10.03;7.63;;;8.10;99.90;;;;;;5089836;28;20485;-75
2021/03/05 07:44:41;;;;;;;9.20;7.90;;;8.10;99.90;;;;;;5087616;28;20444;-74
2021/03/05 07:47:10;;;;;;;11.47;7.00;;;8.10;99.90;;;;;;5088674;28;20972;-74
2021/03/05 07:49:39;;;;;;;11.80;6.87;;;8.10;99.90;;;;;;5089546;28;20452;-74
2021/03/05 07:52:08;;;;;;;9.33;6.73;;;8.10;99.90;;;;;;5089940;28;20532;-76
2021/03/05 07:54:45;;;;;;;10.90;7.40;;;8.10;99.90;;;;;;5092580;28;20465;-75
2021/03/05 07:57:48;;;;;;;8.90;6.30;;;8.10;99.90;;;;;;5095500;28;20920;-77
2021/03/05 08:00:47;;;;;;;11.53;7.63;;;8.10;99.90;;;;;;5093996;28;20984;-73
2021/03/05 08:03:17;;;;;;;8.90;6.60;;;8.00;99.90;;;;;;5101057;28;20472;-73
2021/03/05 08:05:46;;;;;;;29.80;16.60;;;7.90;99.90;;;;;;5091108;28;20487;-75
2021/03/05 08:08:18;;;;;;;34.90;18.60;;;8.00;99.90;;;;;;5100346;28;21039;-75
2021/03/05 08:10:48;;;;;;;17.63;10.93;;;8.00;99.90;;;;;;5090156;28;20465;-75
2021/03/05 08:13:44;;;;;;;9.63;6.30;;;8.00;99.90;;;;;;5092507;28;20450;-74
2021/03/05 08:16:40;;;;;;;12.07;7.40;;;8.00;99.90;;;;;;5105951;28;20450;-74
2021/03/05 08:19:48;;;;;;;8.53;6.13;;;8.00;99.90;;;;;;5086288;28;20440;-75
2021/03/05 08:22:17;;;;;;;10.90;7.63;;;8.00;99.90;;;;;;5107162;28;20460;-76
2021/03/05 08:24:45;;;;;;;11.67;7.23;;;8.00;99.90;;;;;;5104610;27;20522;-75
2021/03/05 08:27:20;;;;;;;11.00;7.20;;;8.00;99.90;;;;;;5082691;28;20469;-77
2021/03/05 08:29:50;;;;;;;9.33;6.73;;;8.10;99.90;;;;;;5103794;28;20943;-76
2021/03/05 08:32:56;;;;;;;9.57;5.83;;;8.00;99.90;;;;;;5102399;28;20948;-77
2021/03/05 08:35:46;;;;;;;11.17;6.47;;;8.00;99.90;;;;;;5102567;28;21144;-76
2021/03/05 08:38:29;;;;;;;10.67;6.90;;;8.10;99.90;;;;;;5107839;28;20477;-78
2021/03/05 08:41:03;;;;;;;7.77;5.30;;;8.00;99.90;;;;;;5107500;28;20463;-77
2021/03/05 08:43:32;;;;;;;8.17;6.03;;;8.00;99.90;;;;;;5108558;28;20445;-77
2021/03/05 08:46:02;;;;;;;9.80;6.07;;;7.90;99.90;;;;;;5102338;28;20587;-77
2021/03/05 08:48:43;;;;;;;10.70;6.50;;;8.00;99.90;;;;;;5102275;28;20440;-76
2021/03/05 08:51:12;;;;;;;8.83;6.30;;;7.90;99.90;;;;;;5109831;28;20963;-78
2021/03/05 08:53:41;;;;;;;9.23;6.80;;;8.20;99.90;;;;;;5097933;27;20441;-77
2021/03/05 08:56:10;;;;;;;9.20;6.60;;;8.10;99.90;;;;;;5124709;27;20437;-77
2021/03/05 08:58:38;;;;;;;7.40;5.63;;;8.00;99.90;;;;;;5121873;27;20609;-76
2021/03/05 09:01:05;;;;;;;8.50;7.20;;;8.00;99.90;;;;;;5102755;28;21146;-77
2021/03/05 09:03:34;;;;;;;8.23;5.37;;;8.00;99.90;;;;;;5104525;28;20975;-78
2021/03/05 09:06:12;;;;;;;9.60;7.13;;;8.10;99.90;;;;;;5108298;28;20573;-76
2021/03/05 09:08:39;;;;;;;10.77;7.03;;;8.00;99.90;;;;;;5112275;28;20862;-77
2021/03/05 09:11:06;;;;;;;7.83;5.77;;;8.10;99.90;;;;;;5107376;28;20454;-77
2021/03/05 09:13:35;;;;;;;8.73;6.30;;;8.30;99.90;;;;;;5090245;28;20470;-77
2021/03/05 09:16:05;;;;;;;6.90;5.30;;;8.00;99.90;;;;;;5092107;28;20441;-76
2021/03/05 09:18:35;;;;;;;9.47;6.30;;;8.00;99.90;;;;;;5104417;28;20463;-78
2021/03/05 09:21:05;;;;;;;7.83;5.63;;;8.30;99.90;;;;;;5104259;28;20457;-78
2021/03/05 09:23:36;;;;;;;6.33;5.57;;;8.00;99.90;;;;;;5117343;27;20455;-76
2021/03/05 09:26:05;;;;;;;8.20;5.23;;;8.10;99.90;;;;;;5105023;28;20838;-79
2021/03/05 09:28:40;;;;;;;5.50;4.30;;;8.10;99.90;;;;;;5107725;27;21042;-79
2021/03/05 09:31:09;;;;;;;9.10;6.03;;;8.10;99.90;;;;;;5091756;28;20527;-75
2021/03/05 09:33:38;;;;;;;11.73;6.03;;;8.10;99.90;;;;;;5094103;28;20473;-80
2021/03/05 09:36:08;;;;;;;6.50;4.60;;;8.30;99.90;;;;;;5125894;27;20552;-78
2021/03/05 09:38:37;;;;;;;7.73;5.30;;;8.10;99.90;;;;;;5110401;28;20464;-77
2021/03/05 09:41:16;;;;;;;6.23;5.10;;;8.10;99.90;;;;;;5101194;28;20457;-79
2021/03/05 09:43:44;;;;;;;9.43;6.13;;;8.20;99.90;;;;;;5105356;28;20912;-77
2021/03/05 09:46:22;;;;;;;7.93;5.30;;;8.20;99.90;;;;;;5108517;28;20519;-77
2021/03/05 09:48:53;;;;;;;8.63;4.53;;;8.20;99.90;;;;;;5105083;28;20834;-79
2021/03/05 09:51:22;;;;;;;8.50;5.30;;;8.20;99.90;;;;;;5122119;27;20463;-77
2021/03/05 09:53:54;;;;;;;29.13;13.77;;;8.10;99.90;;;;;;5110540;28;20451;-79
2021/03/05 09:56:24;;;;;;;12.40;7.60;;;8.20;99.90;;;;;;5094975;28;20534;-78
2021/03/05 09:58:57;;;;;;;5.07;4.57;;;8.20;99.90;;;;;;5122396;27;20445;-79
2021/03/05 10:01:26;;;;;;;7.23;5.50;;;8.20;99.90;;;;;;5119768;27;20448;-78
2021/03/05 10:03:57;;;;;;;7.23;4.70;;;8.30;99.90;;;;;;5091992;28;20455;-79
2021/03/05 10:06:25;;;;;;;10.47;5.33;;;8.30;99.90;;;;;;5110552;28;20481;-77
2021/03/05 10:09:00;;;;;;;7.00;5.20;;;8.30;99.90;;;;;;5091404;28;20446;-74
2021/03/05 10:11:34;;;;;;;8.43;4.97;;;8.30;99.90;;;;;;5110673;28;20533;-73
2021/03/05 10:14:07;;;;;;;9.17;5.10;;;8.30;99.90;;;;;;5090908;28;20465;-74
2021/03/05 10:16:36;;;;;;;6.30;4.40;;;8.30;99.90;;;;;;5109812;28;21038;-77
2021/03/05 10:19:07;;;;;;;5.17;4.63;;;8.30;99.90;;;;;;5079663;28;20460;-76
2021/03/05 10:21:35;;;;;;;7.00;4.50;;;8.30;99.90;;;;;;5109369;28;20461;-77
2021/03/05 10:24:06;;;;;;;9.07;5.50;;;8.30;99.90;;;;;;5076233;28;20443;-76
2021/03/05 10:26:34;;;;;;;8.10;5.50;;;8.30;99.90;;;;;;5107735;28;20559;-77
2021/03/05 10:29:03;;;;;;;5.50;4.37;;;8.20;99.90;;;;;;5120871;27;20455;-76
2021/03/05 10:31:48;;;;;;;7.70;4.97;;;8.20;99.90;;;;;;5102997;27;20571;-75
2021/03/05 10:34:28;;;;;;;6.43;4.50;;;8.30;99.90;;;;;;5102709;28;20463;-75
2021/03/05 10:36:58;;;;;;;6.77;4.67;;;8.40;99.90;;;;;;5102702;28;20567;-75
2021/03/05 10:39:27;;;;;;;9.47;5.80;;;8.40;99.90;;;;;;5107300;28;21026;-75
2021/03/05 10:41:59;;;;;;;7.20;4.87;;;8.40;99.90;;;;;;5108006;28;20479;-75
2021/03/05 10:44:28;;;;;;;10.70;5.80;;;8.40;99.90;;;;;;5104435;28;20557;-74
2021/03/05 10:46:57;;;;;;;38.17;20.37;;;8.30;99.90;;;;;;5106590;28;20539;-74
2021/03/05 10:49:25;;;;;;;41.63;20.03;;;8.40;99.90;;;;;;5104378;28;20499;-74
2021/03/05 10:51:53;;;;;;;20.00;10.30;;;8.30;99.90;;;;;;5099263;28;20518;-76
2021/03/05 10:54:21;;;;;;;6.80;5.33;;;8.30;99.90;;;;;;5087754;28;20537;-76
2021/03/05 10:56:49;;;;;;;6.13;4.40;;;8.30;99.90;;;;;;5095920;28;20527;-75
2021/03/05 10:59:17;;;;;;;6.83;4.30;;;8.30;99.90;;;;;;5107509;28;20526;-75
2021/03/05 11:01:45;;;;;;;7.13;5.10;;;8.30;99.90;;;;;;5090720;28;20462;-75
2021/03/05 11:04:14;;;;;;;6.30;4.77;;;8.30;99.90;;;;;;5091270;28;20435;-76
2021/03/05 11:06:41;;;;;;;8.07;6.40;;;8.30;99.90;;;;;;5088555;28;21008;-76
2021/03/05 11:09:09;;;;;;;6.60;5.17;;;8.30;99.90;;;;;;5085106;28;20541;-74
2021/03/05 11:11:36;;;;;;;5.30;4.30;;;8.40;99.90;;;;;;5104670;28;20466;-74
2021/03/05 11:14:04;;;;;;;6.13;4.50;;;8.40;99.90;;;;;;5108602;28;20445;-76
2021/03/05 11:16:32;;;;;;;7.50;4.53;;;8.40;99.90;;;;;;5100591;28;20520;-76
2021/03/05 11:18:59;;;;;;;6.40;4.00;;;8.30;99.90;;;;;;5096611;28;20537;-77
2021/03/05 11:21:27;;;;;;;7.70;4.50;;;8.30;99.90;;;;;;5103189;28;20869;-76
2021/03/05 11:23:55;;;;;;;7.20;4.40;;;8.30;99.90;;;;;;5105399;28;20459;-76
2021/03/05 11:26:23;;;;;;;7.73;5.03;;;8.30;99.90;;;;;;5105241;28;22205;-77
2021/03/05 11:28:52;;;;;;;7.20;4.40;;;8.40;99.90;;;;;;5106302;28;20450;-77
2021/03/05 11:31:19;;;;;;;6.10;5.00;;;8.40;99.90;;;;;;5090620;28;20790;-76
2021/03/05 11:33:47;;;;;;;7.70;5.00;;;8.40;99.90;;;;;;5099831;28;20977;-77
2021/03/05 11:36:16;;;;;;;6.37;4.67;;;8.40;99.90;;;;;;5103787;27;20453;-76
2021/03/05 11:38:45;;;;;;;6.10;5.50;;;8.50;99.90;;;;;;5104295;28;20457;-75
2021/03/05 11:41:13;;;;;;;6.37;5.40;;;8.40;99.90;;;;;;5107134;28;20453;-75
2021/03/05 11:43:42;;;;;;;10.53;6.23;;;8.40;99.90;;;;;;5118911;27;20519;-76
2021/03/05 11:46:10;;;;;;;5.73;4.60;;;8.50;99.90;;;;;;5105889;28;20457;-75
2021/03/05 11:48:37;;;;;;;5.40;4.77;;;8.40;99.90;;;;;;5081669;28;20488;-74
2021/03/05 11:51:06;;;;;;;7.60;5.40;;;8.40;99.90;;;;;;5084986;28;20520;-75
2021/03/05 11:53:33;;;;;;;6.27;4.77;;;8.40;99.90;;;;;;5107889;28;20544;-74
2021/03/05 11:56:01;;;;;;;6.90;5.97;;;8.40;99.90;;;;;;5087150;28;20969;-74
2021/03/05 11:58:28;;;;;;;10.07;5.90;;;8.50;99.90;;;;;;5105417;28;20456;-73
2021/03/05 12:00:56;;;;;;;9.20;6.10;;;8.50;99.90;;;;;;5102660;28;20466;-73
2021/03/05 12:03:23;;;;;;;6.97;4.80;;;8.60;99.90;;;;;;5108180;28;20481;-72
2021/03/05 12:05:51;;;;;;;7.43;5.43;;;8.50;99.90;;;;;;5085386;28;20469;-71
2021/03/05 12:08:18;;;;;;;9.47;5.70;;;8.50;99.90;;;;;;5107501;28;20470;-74
2021/03/05 12:10:45;;;;;;;8.80;5.90;;;8.50;99.90;;;;;;5085032;28;20466;-73
2021/03/05 12:13:13;;;;;;;7.23;6.50;;;8.40;99.90;;;;;;5081596;28;20449;-75
2021/03/05 12:15:40;;;;;;;7.63;5.53;;;8.40;99.90;;;;;;5101264;28;20474;-74
2021/03/05 12:18:09;;;;;;;9.75;5.80;;;8.40;99.90;;;;;;5096421;28;20443;-74
2021/03/05 12:20:38;;;;;;;8.17;5.77;;;8.50;99.90;;;;;;5102983;28;20197;-73
2021/03/05 12:23:07;;;;;;;10.23;6.37;;;8.50;99.90;;;;;;5103812;28;21029;-73
2021/03/05 12:25:34;;;;;;;10.07;5.33;;;8.50;99.90;;;;;;5102409;28;20454;-74
2021/03/05 12:28:02;;;;;;;6.10;5.40;;;8.50;99.90;;;;;;5107626;28;20581;-73
2021/03/05 12:30:30;;;;;;;7.23;5.70;;;8.40;99.90;;;;;;5107511;28;20545;-73
2021/03/05 12:32:57;;;;;;;9.67;6.27;;;8.40;99.90;;;;;;5103530;28;20456;-74
2021/03/05 12:35:26;;;;;;;9.73;6.60;;;8.40;99.90;;;;;;5102950;28;20474;-75
2021/03/05 12:37:53;;;;;;;8.43;5.93;;;8.40;99.90;;;;;;5107706;28;20503;-74
2021/03/05 12:40:20;;;;;;;8.40;5.53;;;8.40;99.90;;;;;;5101073;28;20489;-75
2021/03/05 12:42:47;;;;;;;9.80;6.63;;;8.30;99.90;;;;;;5107657;28;20455;-75
2021/03/05 12:45:15;;;;;;;9.00;6.13;;;8.30;99.90;;;;;;5103108;28;20614;-76
2021/03/05 12:47:43;;;;;;;8.40;7.03;;;8.30;99.90;;;;;;5106513;28;20482;-74
2021/03/05 12:50:11;;;;;;;7.70;6.00;;;8.40;99.90;;;;;;5104517;28;20438;-75
2021/03/05 12:52:39;;;;;;;11.67;6.33;;;8.30;99.90;;;;;;5108627;28;20487;-75
2021/03/05 12:55:08;;;;;;;9.17;6.00;;;8.30;99.90;;;;;;5109996;28;20458;-74
2021/03/05 12:57:35;;;;;;;7.63;4.90;;;8.30;99.90;;;;;;5085039;28;20455;-74
2021/03/05 13:00:03;;;;;;;9.40;6.30;;;8.20;99.90;;;;;;5107497;28;20474;-77
2021/03/05 13:02:30;;;;;;;10.70;6.67;;;8.30;99.90;;;;;;5108876;28;20502;-75
2021/03/05 13:04:58;;;;;;;9.17;6.60;;;8.40;99.90;;;;;;5105335;28;20980;-75
2021/03/05 13:07:25;;;;;;;7.50;6.73;;;8.30;99.90;;;;;;5089846;28;20473;-75